Aviation Digital Data Service (ADDS)

Output produced by METARs form (1927 UTC 23 June 2018)
found at http://aviationweather.gov/adds/metars/
 
KRDU 231850Z 2319/2418 25011G20KT P6SM SCT050 
     TEMPO 2319/2321 4SM -SHRA BKN050 
     FM240100 25005KT P6SM BKN250 
     FM241600 25010KT P6SM SCT040